Aviation Digital Data Service (ADDS)

Output produced by METARs form (1004 UTC 21 April 2021)
found at http://www.aviationweather.gov/metar/data/
 
EDDK 210950Z VRB03KT CAVOK 12/06 Q1017 BECMG 31007KT
EDDK 210920Z VRB02KT CAVOK 11/06 Q1017 BECMG 31007KT
EDDK 210850Z 15004KT 110V170 CAVOK 09/05 Q1017 NOSIG
EDDK 210820Z VRB02KT 9999 -RA FEW043 09/05 Q1017 NOSIG
EDDK 210750Z 19003KT 9999 -RA FEW043 08/05 Q1017 NOSIG
EDDK 210720Z 16004KT 9999 -RA FEW028 08/05 Q1017 NOSIG
EDDK 210650Z VRB02KT 9999 -RA NSC 08/04 Q1017 NOSIG
EDDK 210620Z 14003KT 090V180 CAVOK 07/05 Q1016 NOSIG
TAF EDDK 210500Z 2106/2212 VRB03KT CAVOK 
     BECMG 2109/2111 31006KT 
     BECMG 2115/2118 01010KT 
     BECMG 2122/2124 36005KT 
     TEMPO 2201/2207 VRB03KT
       
EDGS 210950Z 30004KT 240V360 9999 FEW017 SCT023 14/09 Q1016
EDGS 210920Z VRB03KT 9999 FEW010 14/10 Q1016
EDGS 210850Z VRB02KT 9999 FEW004 11/07 Q1016
EDGS 210820Z VRB01KT 9999 FEW004 SCT032 11/06 Q1016
EDGS 210750Z VRB02KT 9999 FEW017 SCT039 BKN048 08/05 Q1016
EDGS 210720Z VRB03KT 9999 -SHRA FEW011 SCT036 BKN049 07/05 Q1016
EDGS 210650Z 04004KT 7000 SCT033 BKN044 07/05 Q1016 RESHRA
EDGS 210620Z 35008KT 8000 SHRA FEW011 BKN023TCU 06/05 Q1016
TAF EDGS 210800Z 2109/2118 VRB02KT 9999 SCT025 
     BECMG 2109/2111 34008KT 
     TEMPO 2110/2116 SHRA BKN025CB 
     PROB40 
     TEMPO 2111/2116 35013KT 4000 TSRA BKN015CB
       
EDLW 210950Z VRB05KT CAVOK 15/03 Q1017
EDLW 210920Z 35004KT 290V050 CAVOK 14/03 Q1017
EDLW 210850Z VRB03KT CAVOK 14/07 Q1016
EDLW 210820Z VRB03KT CAVOK 13/07 Q1016
EDLW 210750Z 31003KT 220V030 CAVOK 12/07 Q1016
EDLW 210720Z 23003KT 190V300 CAVOK 11/08 Q1016
EDLW 210650Z 24003KT CAVOK 11/07 Q1016
EDLW 210620Z VRB01KT CAVOK 10/07 Q1016
TAF EDLW 210500Z 2106/2206 18005KT CAVOK 
     BECMG 2106/2109 33005KT 
     TEMPO 2113/2118 36010KT
       
EDDL 210950Z 30005KT 260V340 CAVOK 15/06 Q1017 BECMG 31008KT
EDDL 210920Z 33004KT 280V360 CAVOK 14/07 Q1017 BECMG 31008KT
EDDL 210850Z 30003KT 230V340 CAVOK 13/07 Q1017 BECMG 31008KT
EDDL 210820Z 27004KT 220V300 9000 NSC 11/07 Q1017 BECMG 31008KT
EDDL 210750Z VRB02KT 9000 NSC 11/07 Q1016 BECMG 31008KT
EDDL 210720Z 29003KT 250V310 8000 NSC 10/07 Q1016 BECMG 31008KT
EDDL 210650Z 25003KT 210V300 8000 NSC 10/07 Q1016 NOSIG
EDDL 210620Z VRB02KT 8000 NSC 08/06 Q1016 NOSIG
TAF EDDL 210500Z 2106/2212 VRB03KT CAVOK 
     BECMG 2108/2111 34009KT 
     PROB30 
     TEMPO 2115/2119 36014KT 
     BECMG 2122/2124 01004KT 
     BECMG 2208/2211 36009KT
       
ETNN 210920Z 02001KT 5000 HZ BKN070 12/06 Q1017 WHT WHT BECMG BLU+
ETNN 210820Z 33001KT 4000 HZ BKN070 10/06 Q1017 GRN
ETNN 210720Z 03003KT 4000 BR FEW020 BKN060 09/06 Q1016 GRN
ETNN 210621Z 33002KT 4000 BR FEW020 BKN060 07/05 Q1016 GRN
TAF AMD ETNN 210926Z 2109/2117 36005KT 5000 HZ BKN070 SCT200 
     BECMG 2109/2110 36008KT 9999 NSW SCT070 
     PROB30 2112/2117 34010KT 5000 -SHRA BKN030TCU BY ETGL